sensor_id;sensor_type;location;lat;lon;timestamp;P1;durP1;ratioP1;P2;durP2;ratioP2
1507;SDS011;745;48.586;10.032;2023-04-24T00:00:30;5.83;;;3.00;;
1507;SDS011;745;48.586;10.032;2023-04-24T00:05:08;3.87;;;3.20;;
1507;SDS011;745;48.586;10.032;2023-04-24T00:09:40;4.40;;;4.00;;
1507;SDS011;745;48.586;10.032;2023-04-24T00:14:10;3.90;;;3.03;;
1507;SDS011;745;48.586;10.032;2023-04-24T00:18:43;4.00;;;3.43;;
1507;SDS011;745;48.586;10.032;2023-04-24T00:23:16;3.70;;;3.37;;
1507;SDS011;745;48.586;10.032;2023-04-24T00:27:47;5.80;;;3.30;;
1507;SDS011;745;48.586;10.032;2023-04-24T00:32:17;3.50;;;3.20;;
1507;SDS011;745;48.586;10.032;2023-04-24T00:36:58;3.97;;;2.93;;
1507;SDS011;745;48.586;10.032;2023-04-24T00:41:28;3.57;;;3.27;;
1507;SDS011;745;48.586;10.032;2023-04-24T00:46:06;3.80;;;3.50;;
1507;SDS011;745;48.586;10.032;2023-04-24T00:50:37;3.33;;;3.03;;
1507;SDS011;745;48.586;10.032;2023-04-24T00:55:10;3.50;;;2.97;;
1507;SDS011;745;48.586;10.032;2023-04-24T00:59:41;3.93;;;2.60;;
1507;SDS011;745;48.586;10.032;2023-04-24T01:04:12;3.33;;;3.03;;
1507;SDS011;745;48.586;10.032;2023-04-24T01:08:51;3.13;;;2.60;;
1507;SDS011;745;48.586;10.032;2023-04-24T01:13:27;3.60;;;2.63;;
1507;SDS011;745;48.586;10.032;2023-04-24T01:17:59;2.60;;;2.37;;
1507;SDS011;745;48.586;10.032;2023-04-24T01:22:29;3.10;;;2.80;;
1507;SDS011;745;48.586;10.032;2023-04-24T01:27:14;3.03;;;2.00;;
1507;SDS011;745;48.586;10.032;2023-04-24T01:31:45;2.57;;;2.20;;
1507;SDS011;745;48.586;10.032;2023-04-24T01:36:17;2.60;;;2.33;;
1507;SDS011;745;48.586;10.032;2023-04-24T01:40:48;2.43;;;2.23;;
1507;SDS011;745;48.586;10.032;2023-04-24T01:45:19;3.23;;;2.10;;
1507;SDS011;745;48.586;10.032;2023-04-24T01:49:50;3.07;;;2.23;;
1507;SDS011;745;48.586;10.032;2023-04-24T01:54:20;3.40;;;2.10;;
1507;SDS011;745;48.586;10.032;2023-04-24T01:58:51;2.47;;;2.10;;
1507;SDS011;745;48.586;10.032;2023-04-24T02:03:22;2.40;;;2.20;;
1507;SDS011;745;48.586;10.032;2023-04-24T02:08:07;2.43;;;2.23;;
1507;SDS011;745;48.586;10.032;2023-04-24T02:12:46;2.80;;;2.03;;
1507;SDS011;745;48.586;10.032;2023-04-24T02:17:34;2.50;;;2.07;;
1507;SDS011;745;48.586;10.032;2023-04-24T02:22:04;2.27;;;2.10;;
1507;SDS011;745;48.586;10.032;2023-04-24T02:26:36;2.40;;;2.30;;
1507;SDS011;745;48.586;10.032;2023-04-24T02:31:07;2.27;;;1.90;;
1507;SDS011;745;48.586;10.032;2023-04-24T02:35:50;2.37;;;1.90;;
1507;SDS011;745;48.586;10.032;2023-04-24T02:40:21;2.43;;;2.23;;
1507;SDS011;745;48.586;10.032;2023-04-24T02:45:01;3.43;;;2.37;;
1507;SDS011;745;48.586;10.032;2023-04-24T02:49:31;2.27;;;2.03;;
1507;SDS011;745;48.586;10.032;2023-04-24T02:54:03;2.10;;;1.90;;
1507;SDS011;745;48.586;10.032;2023-04-24T02:58:34;3.70;;;2.20;;
1507;SDS011;745;48.586;10.032;2023-04-24T03:03:05;2.80;;;2.37;;
1507;SDS011;745;48.586;10.032;2023-04-24T03:07:49;2.97;;;2.10;;
1507;SDS011;745;48.586;10.032;2023-04-24T03:12:21;2.97;;;2.40;;
1507;SDS011;745;48.586;10.032;2023-04-24T03:16:53;2.00;;;1.90;;
1507;SDS011;745;48.586;10.032;2023-04-24T03:21:24;2.97;;;2.67;;
1507;SDS011;745;48.586;10.032;2023-04-24T03:25:54;2.47;;;2.27;;
1507;SDS011;745;48.586;10.032;2023-04-24T03:30:25;2.63;;;2.17;;
1507;SDS011;745;48.586;10.032;2023-04-24T03:34:55;2.50;;;2.30;;
1507;SDS011;745;48.586;10.032;2023-04-24T03:39:25;2.10;;;2.00;;
1507;SDS011;745;48.586;10.032;2023-04-24T03:43:57;3.63;;;2.90;;
1507;SDS011;745;48.586;10.032;2023-04-24T03:48:27;2.60;;;2.40;;
1507;SDS011;745;48.586;10.032;2023-04-24T03:52:57;2.60;;;2.40;;
1507;SDS011;745;48.586;10.032;2023-04-24T03:57:28;4.17;;;3.77;;
1507;SDS011;745;48.586;10.032;2023-04-24T04:01:58;4.40;;;3.90;;
1507;SDS011;745;48.586;10.032;2023-04-24T04:06:30;4.67;;;3.57;;
1507;SDS011;745;48.586;10.032;2023-04-24T04:11:03;4.50;;;3.30;;
1507;SDS011;745;48.586;10.032;2023-04-24T04:15:34;4.27;;;3.37;;
1507;SDS011;745;48.586;10.032;2023-04-24T04:20:04;5.13;;;2.90;;
1507;SDS011;745;48.586;10.032;2023-04-24T04:24:41;3.60;;;3.30;;
1507;SDS011;745;48.586;10.032;2023-04-24T04:29:13;3.73;;;3.33;;
1507;SDS011;745;48.586;10.032;2023-04-24T04:33:43;4.03;;;3.63;;
1507;SDS011;745;48.586;10.032;2023-04-24T04:38:15;9.10;;;3.00;;
1507;SDS011;745;48.586;10.032;2023-04-24T04:42:46;3.63;;;3.17;;
1507;SDS011;745;48.586;10.032;2023-04-24T04:47:17;3.30;;;3.00;;
1507;SDS011;745;48.586;10.032;2023-04-24T04:51:48;3.73;;;3.30;;
1507;SDS011;745;48.586;10.032;2023-04-24T04:56:19;4.97;;;4.13;;
1507;SDS011;745;48.586;10.032;2023-04-24T05:00:49;5.67;;;3.87;;
1507;SDS011;745;48.586;10.032;2023-04-24T05:05:21;6.00;;;3.50;;
1507;SDS011;745;48.586;10.032;2023-04-24T05:09:51;5.10;;;4.00;;
1507;SDS011;745;48.586;10.032;2023-04-24T05:14:22;4.90;;;4.40;;
1507;SDS011;745;48.586;10.032;2023-04-24T05:18:59;4.90;;;3.87;;
1507;SDS011;745;48.586;10.032;2023-04-24T05:23:31;5.27;;;4.77;;
1507;SDS011;745;48.586;10.032;2023-04-24T05:28:07;5.70;;;4.33;;
1507;SDS011;745;48.586;10.032;2023-04-24T05:32:39;5.03;;;4.50;;
1507;SDS011;745;48.586;10.032;2023-04-24T05:37:12;5.33;;;4.60;;
1507;SDS011;745;48.586;10.032;2023-04-24T05:41:42;7.87;;;5.80;;
1507;SDS011;745;48.586;10.032;2023-04-24T05:46:12;6.80;;;6.10;;
1507;SDS011;745;48.586;10.032;2023-04-24T05:50:43;5.33;;;4.83;;
1507;SDS011;745;48.586;10.032;2023-04-24T05:55:15;6.93;;;6.20;;
1507;SDS011;745;48.586;10.032;2023-04-24T05:59:48;5.87;;;5.23;;
1507;SDS011;745;48.586;10.032;2023-04-24T06:04:18;1.83;;;1.73;;
1507;SDS011;745;48.586;10.032;2023-04-24T06:08:49;1.90;;;1.60;;
1507;SDS011;745;48.586;10.032;2023-04-24T06:13:19;2.00;;;1.80;;
1507;SDS011;745;48.586;10.032;2023-04-24T06:17:51;4.10;;;2.37;;
1507;SDS011;745;48.586;10.032;2023-04-24T06:22:21;3.73;;;3.30;;
1507;SDS011;745;48.586;10.032;2023-04-24T06:26:57;3.40;;;3.10;;
1507;SDS011;745;48.586;10.032;2023-04-24T06:31:31;4.90;;;3.67;;
1507;SDS011;745;48.586;10.032;2023-04-24T06:36:06;8.93;;;6.73;;
1507;SDS011;745;48.586;10.032;2023-04-24T06:40:37;11.07;;;7.90;;
1507;SDS011;745;48.586;10.032;2023-04-24T06:45:07;11.60;;;8.07;;
1507;SDS011;745;48.586;10.032;2023-04-24T06:49:38;8.60;;;5.00;;
1507;SDS011;745;48.586;10.032;2023-04-24T06:54:08;4.07;;;3.30;;
1507;SDS011;745;48.586;10.032;2023-04-24T06:58:38;2.80;;;2.40;;
1507;SDS011;745;48.586;10.032;2023-04-24T07:03:09;3.87;;;3.47;;
1507;SDS011;745;48.586;10.032;2023-04-24T07:07:40;3.27;;;2.97;;
1507;SDS011;745;48.586;10.032;2023-04-24T07:12:12;3.03;;;2.80;;
1507;SDS011;745;48.586;10.032;2023-04-24T07:16:43;4.73;;;2.57;;
1507;SDS011;745;48.586;10.032;2023-04-24T07:21:15;2.80;;;2.60;;
1507;SDS011;745;48.586;10.032;2023-04-24T07:25:45;3.00;;;2.80;;
1507;SDS011;745;48.586;10.032;2023-04-24T07:30:16;2.80;;;2.60;;
1507;SDS011;745;48.586;10.032;2023-04-24T07:34:48;2.53;;;2.33;;
1507;SDS011;745;48.586;10.032;2023-04-24T07:39:18;3.10;;;2.60;;
1507;SDS011;745;48.586;10.032;2023-04-24T07:43:48;3.97;;;3.07;;
1507;SDS011;745;48.586;10.032;2023-04-24T07:48:19;4.47;;;3.37;;
1507;SDS011;745;48.586;10.032;2023-04-24T07:52:51;3.50;;;3.10;;
1507;SDS011;745;48.586;10.032;2023-04-24T07:57:22;2.80;;;2.60;;
1507;SDS011;745;48.586;10.032;2023-04-24T08:01:52;3.03;;;2.70;;
1507;SDS011;745;48.586;10.032;2023-04-24T08:06:25;2.93;;;2.40;;
1507;SDS011;745;48.586;10.032;2023-04-24T08:11:00;3.00;;;2.77;;
1507;SDS011;745;48.586;10.032;2023-04-24T08:15:30;3.20;;;3.00;;
1507;SDS011;745;48.586;10.032;2023-04-24T08:20:01;2.50;;;2.30;;
1507;SDS011;745;48.586;10.032;2023-04-24T08:24:31;3.43;;;2.27;;
1507;SDS011;745;48.586;10.032;2023-04-24T08:29:02;2.10;;;2.00;;
1507;SDS011;745;48.586;10.032;2023-04-24T08:33:32;3.07;;;2.57;;
1507;SDS011;745;48.586;10.032;2023-04-24T08:38:04;2.10;;;1.70;;
1507;SDS011;745;48.586;10.032;2023-04-24T08:42:35;2.97;;;2.73;;
1507;SDS011;745;48.586;10.032;2023-04-24T08:47:07;2.63;;;2.20;;
1507;SDS011;745;48.586;10.032;2023-04-24T08:51:38;2.33;;;2.03;;
1507;SDS011;745;48.586;10.032;2023-04-24T08:56:09;3.67;;;2.40;;
1507;SDS011;745;48.586;10.032;2023-04-24T09:00:41;3.50;;;2.00;;
1507;SDS011;745;48.586;10.032;2023-04-24T09:05:17;2.80;;;1.97;;
1507;SDS011;745;48.586;10.032;2023-04-24T09:09:49;2.77;;;2.33;;
1507;SDS011;745;48.586;10.032;2023-04-24T09:14:21;2.30;;;2.10;;
1507;SDS011;745;48.586;10.032;2023-04-24T09:18:53;2.43;;;2.23;;
1507;SDS011;745;48.586;10.032;2023-04-24T09:23:25;2.10;;;1.90;;
1507;SDS011;745;48.586;10.032;2023-04-24T09:27:58;3.53;;;2.30;;
1507;SDS011;745;48.586;10.032;2023-04-24T09:32:30;2.90;;;1.90;;
1507;SDS011;745;48.586;10.032;2023-04-24T09:37:01;2.93;;;2.20;;
1507;SDS011;745;48.586;10.032;2023-04-24T09:41:32;3.07;;;2.63;;
1507;SDS011;745;48.586;10.032;2023-04-24T09:46:06;2.97;;;2.20;;
1507;SDS011;745;48.586;10.032;2023-04-24T09:50:37;3.10;;;2.53;;
1507;SDS011;745;48.586;10.032;2023-04-24T09:55:18;3.70;;;2.20;;
1507;SDS011;745;48.586;10.032;2023-04-24T09:59:49;3.03;;;2.10;;
1507;SDS011;745;48.586;10.032;2023-04-24T10:04:26;3.73;;;2.43;;
1507;SDS011;745;48.586;10.032;2023-04-24T10:08:58;2.50;;;2.30;;
1507;SDS011;745;48.586;10.032;2023-04-24T10:13:29;5.03;;;2.10;;
1507;SDS011;745;48.586;10.032;2023-04-24T10:18:00;2.80;;;1.90;;
1507;SDS011;745;48.586;10.032;2023-04-24T10:22:32;2.27;;;2.13;;
1507;SDS011;745;48.586;10.032;2023-04-24T10:27:02;2.50;;;1.80;;
1507;SDS011;745;48.586;10.032;2023-04-24T10:31:33;2.23;;;2.03;;
1507;SDS011;745;48.586;10.032;2023-04-24T10:36:03;1.90;;;1.80;;
1507;SDS011;745;48.586;10.032;2023-04-24T10:40:35;1.83;;;1.70;;
1507;SDS011;745;48.586;10.032;2023-04-24T10:45:06;2.30;;;2.10;;
1507;SDS011;745;48.586;10.032;2023-04-24T10:49:36;2.30;;;1.97;;
1507;SDS011;745;48.586;10.032;2023-04-24T10:54:21;2.17;;;1.90;;
1507;SDS011;745;48.586;10.032;2023-04-24T10:58:53;2.00;;;1.90;;
1507;SDS011;745;48.586;10.032;2023-04-24T11:03:33;2.70;;;2.10;;
1507;SDS011;745;48.586;10.032;2023-04-24T11:08:21;3.10;;;2.00;;
1507;SDS011;745;48.586;10.032;2023-04-24T11:12:53;2.17;;;1.80;;
1507;SDS011;745;48.586;10.032;2023-04-24T11:17:30;2.77;;;1.93;;
1507;SDS011;745;48.586;10.032;2023-04-24T11:22:02;2.97;;;2.50;;
1507;SDS011;745;48.586;10.032;2023-04-24T11:26:36;2.87;;;2.17;;
1507;SDS011;745;48.586;10.032;2023-04-24T11:36:07;2.00;;;1.90;;
1507;SDS011;745;48.586;10.032;2023-04-24T11:40:37;2.07;;;1.87;;
1507;SDS011;745;48.586;10.032;2023-04-24T11:45:08;2.80;;;2.20;;
1507;SDS011;745;48.586;10.032;2023-04-24T11:49:40;2.20;;;2.00;;
1507;SDS011;745;48.586;10.032;2023-04-24T11:54:10;2.50;;;2.03;;
1507;SDS011;745;48.586;10.032;2023-04-24T11:58:41;1.97;;;1.77;;
1507;SDS011;745;48.586;10.032;2023-04-24T12:03:11;2.77;;;2.20;;
1507;SDS011;745;48.586;10.032;2023-04-24T12:07:42;2.40;;;1.90;;
1507;SDS011;745;48.586;10.032;2023-04-24T12:12:13;1.93;;;1.77;;
1507;SDS011;745;48.586;10.032;2023-04-24T12:16:47;2.37;;;1.83;;
1507;SDS011;745;48.586;10.032;2023-04-24T12:21:22;1.80;;;1.70;;
1507;SDS011;745;48.586;10.032;2023-04-24T12:25:52;1.90;;;1.77;;
1507;SDS011;745;48.586;10.032;2023-04-24T12:30:26;1.93;;;1.83;;
1507;SDS011;745;48.586;10.032;2023-04-24T12:34:58;2.23;;;2.07;;
1507;SDS011;745;48.586;10.032;2023-04-24T12:39:29;2.50;;;1.87;;
1507;SDS011;745;48.586;10.032;2023-04-24T12:43:59;2.07;;;1.97;;
1507;SDS011;745;48.586;10.032;2023-04-24T12:48:30;1.60;;;1.50;;
1507;SDS011;745;48.586;10.032;2023-04-24T12:53:00;1.80;;;1.70;;
1507;SDS011;745;48.586;10.032;2023-04-24T12:57:31;1.70;;;1.60;;
1507;SDS011;745;48.586;10.032;2023-04-24T13:02:01;2.13;;;1.93;;
1507;SDS011;745;48.586;10.032;2023-04-24T13:06:32;1.83;;;1.73;;
1507;SDS011;745;48.586;10.032;2023-04-24T13:11:02;1.80;;;1.70;;
1507;SDS011;745;48.586;10.032;2023-04-24T13:15:33;2.80;;;1.83;;
1507;SDS011;745;48.586;10.032;2023-04-24T13:20:03;1.70;;;1.60;;
1507;SDS011;745;48.586;10.032;2023-04-24T13:24:34;2.30;;;1.83;;
1507;SDS011;745;48.586;10.032;2023-04-24T13:29:04;1.97;;;1.77;;
1507;SDS011;745;48.586;10.032;2023-04-24T13:33:35;1.90;;;1.80;;
1507;SDS011;745;48.586;10.032;2023-04-24T13:38:05;1.80;;;1.67;;
1507;SDS011;745;48.586;10.032;2023-04-24T13:42:36;1.90;;;1.70;;
1507;SDS011;745;48.586;10.032;2023-04-24T13:47:07;2.27;;;1.70;;
1507;SDS011;745;48.586;10.032;2023-04-24T13:51:37;1.90;;;1.70;;
1507;SDS011;745;48.586;10.032;2023-04-24T13:56:08;1.80;;;1.70;;
1507;SDS011;745;48.586;10.032;2023-04-24T14:00:38;2.23;;;1.90;;
1507;SDS011;745;48.586;10.032;2023-04-24T14:05:09;2.57;;;2.00;;
1507;SDS011;745;48.586;10.032;2023-04-24T14:09:41;1.67;;;1.57;;
1507;SDS011;745;48.586;10.032;2023-04-24T14:14:11;1.77;;;1.67;;
1507;SDS011;745;48.586;10.032;2023-04-24T14:18:41;2.13;;;1.80;;
1507;SDS011;745;48.586;10.032;2023-04-24T14:23:12;2.20;;;1.93;;
1507;SDS011;745;48.586;10.032;2023-04-24T14:27:42;2.73;;;2.23;;
1507;SDS011;745;48.586;10.032;2023-04-24T14:32:12;2.30;;;2.10;;
1507;SDS011;745;48.586;10.032;2023-04-24T14:36:44;2.50;;;2.30;;
1507;SDS011;745;48.586;10.032;2023-04-24T14:41:15;3.40;;;3.10;;
1507;SDS011;745;48.586;10.032;2023-04-24T14:45:45;2.33;;;2.13;;
1507;SDS011;745;48.586;10.032;2023-04-24T14:50:16;2.20;;;2.00;;
1507;SDS011;745;48.586;10.032;2023-04-24T14:54:46;4.10;;;2.77;;
1507;SDS011;745;48.586;10.032;2023-04-24T14:59:17;2.20;;;2.00;;
1507;SDS011;745;48.586;10.032;2023-04-24T15:03:47;2.83;;;2.53;;
1507;SDS011;745;48.586;10.032;2023-04-24T15:08:17;2.77;;;2.57;;
1507;SDS011;745;48.586;10.032;2023-04-24T15:12:48;2.83;;;2.60;;
1507;SDS011;745;48.586;10.032;2023-04-24T15:17:18;2.50;;;2.33;;
1507;SDS011;745;48.586;10.032;2023-04-24T15:21:48;2.93;;;2.63;;
1507;SDS011;745;48.586;10.032;2023-04-24T15:26:19;2.80;;;2.10;;
1507;SDS011;745;48.586;10.032;2023-04-24T15:30:49;2.43;;;2.23;;
1507;SDS011;745;48.586;10.032;2023-04-24T15:35:20;2.53;;;2.33;;
1507;SDS011;745;48.586;10.032;2023-04-24T15:39:50;2.47;;;2.27;;
1507;SDS011;745;48.586;10.032;2023-04-24T15:44:21;2.93;;;2.63;;
1507;SDS011;745;48.586;10.032;2023-04-24T15:48:51;3.07;;;2.57;;
1507;SDS011;745;48.586;10.032;2023-04-24T15:53:22;3.27;;;2.97;;
1507;SDS011;745;48.586;10.032;2023-04-24T15:57:53;3.60;;;2.57;;
1507;SDS011;745;48.586;10.032;2023-04-24T16:02:24;3.40;;;3.10;;
1507;SDS011;745;48.586;10.032;2023-04-24T16:06:54;2.97;;;2.40;;
1507;SDS011;745;48.586;10.032;2023-04-24T16:11:26;3.17;;;2.87;;
1507;SDS011;745;48.586;10.032;2023-04-24T16:15:56;2.63;;;2.40;;
1507;SDS011;745;48.586;10.032;2023-04-24T16:20:27;2.30;;;2.10;;
1507;SDS011;745;48.586;10.032;2023-04-24T16:24:57;2.47;;;2.27;;
1507;SDS011;745;48.586;10.032;2023-04-24T16:29:27;2.90;;;2.70;;
1507;SDS011;745;48.586;10.032;2023-04-24T16:33:59;3.70;;;3.30;;
1507;SDS011;745;48.586;10.032;2023-04-24T16:38:36;3.20;;;2.90;;
1507;SDS011;745;48.586;10.032;2023-04-24T16:43:06;2.60;;;2.27;;
1507;SDS011;745;48.586;10.032;2023-04-24T16:47:43;2.70;;;2.50;;
1507;SDS011;745;48.586;10.032;2023-04-24T16:52:14;2.67;;;2.43;;
1507;SDS011;745;48.586;10.032;2023-04-24T16:56:45;2.33;;;2.10;;
1507;SDS011;745;48.586;10.032;2023-04-24T17:01:15;3.37;;;2.20;;
1507;SDS011;745;48.586;10.032;2023-04-24T17:05:45;2.60;;;2.40;;
1507;SDS011;745;48.586;10.032;2023-04-24T17:10:16;2.83;;;2.50;;
1507;SDS011;745;48.586;10.032;2023-04-24T17:14:47;2.10;;;1.90;;
1507;SDS011;745;48.586;10.032;2023-04-24T17:19:17;2.60;;;2.40;;
1507;SDS011;745;48.586;10.032;2023-04-24T17:23:47;4.40;;;2.67;;
1507;SDS011;745;48.586;10.032;2023-04-24T17:28:28;2.50;;;2.30;;
1507;SDS011;745;48.586;10.032;2023-04-24T17:32:59;3.20;;;2.53;;
1507;SDS011;745;48.586;10.032;2023-04-24T17:37:29;2.90;;;2.43;;
1507;SDS011;745;48.586;10.032;2023-04-24T17:42:00;2.67;;;2.43;;
1507;SDS011;745;48.586;10.032;2023-04-24T17:46:31;3.63;;;2.70;;
1507;SDS011;745;48.586;10.032;2023-04-24T17:51:01;3.30;;;3.00;;
1507;SDS011;745;48.586;10.032;2023-04-24T17:55:31;3.70;;;3.03;;
1507;SDS011;745;48.586;10.032;2023-04-24T18:00:03;4.60;;;3.10;;
1507;SDS011;745;48.586;10.032;2023-04-24T18:04:34;2.77;;;2.57;;
1507;SDS011;745;48.586;10.032;2023-04-24T18:09:04;2.70;;;2.50;;
1507;SDS011;745;48.586;10.032;2023-04-24T18:13:34;3.10;;;2.80;;
1507;SDS011;745;48.586;10.032;2023-04-24T18:18:05;3.23;;;2.80;;
1507;SDS011;745;48.586;10.032;2023-04-24T18:22:36;3.00;;;2.70;;
1507;SDS011;745;48.586;10.032;2023-04-24T18:27:06;3.47;;;2.80;;
1507;SDS011;745;48.586;10.032;2023-04-24T18:31:36;3.33;;;3.03;;
1507;SDS011;745;48.586;10.032;2023-04-24T18:36:08;2.90;;;2.70;;
1507;SDS011;745;48.586;10.032;2023-04-24T18:40:38;3.50;;;3.00;;
1507;SDS011;745;48.586;10.032;2023-04-24T18:45:09;5.53;;;3.70;;
1507;SDS011;745;48.586;10.032;2023-04-24T18:49:40;3.00;;;2.70;;
1507;SDS011;745;48.586;10.032;2023-04-24T18:54:10;4.03;;;3.67;;
1507;SDS011;745;48.586;10.032;2023-04-24T18:58:40;4.87;;;3.83;;
1507;SDS011;745;48.586;10.032;2023-04-24T19:03:15;6.00;;;5.40;;
1507;SDS011;745;48.586;10.032;2023-04-24T19:07:45;11.23;;;10.00;;
1507;SDS011;745;48.586;10.032;2023-04-24T19:12:15;4.70;;;4.30;;
1507;SDS011;745;48.586;10.032;2023-04-24T19:16:46;3.40;;;2.73;;
1507;SDS011;745;48.586;10.032;2023-04-24T19:21:16;2.77;;;2.57;;
1507;SDS011;745;48.586;10.032;2023-04-24T19:25:47;2.30;;;2.10;;
1507;SDS011;745;48.586;10.032;2023-04-24T19:30:17;2.60;;;2.40;;
1507;SDS011;745;48.586;10.032;2023-04-24T19:34:48;2.60;;;2.40;;
1507;SDS011;745;48.586;10.032;2023-04-24T19:39:18;2.27;;;2.07;;
1507;SDS011;745;48.586;10.032;2023-04-24T19:43:48;3.90;;;2.43;;
1507;SDS011;745;48.586;10.032;2023-04-24T19:48:19;3.17;;;2.87;;
1507;SDS011;745;48.586;10.032;2023-04-24T19:52:50;2.60;;;2.30;;
1507;SDS011;745;48.586;10.032;2023-04-24T19:57:20;3.43;;;2.90;;
1507;SDS011;745;48.586;10.032;2023-04-24T20:01:50;3.10;;;2.80;;
1507;SDS011;745;48.586;10.032;2023-04-24T20:06:30;4.27;;;3.70;;
1507;SDS011;745;48.586;10.032;2023-04-24T20:11:00;4.60;;;4.20;;
1507;SDS011;745;48.586;10.032;2023-04-24T20:15:31;3.83;;;3.47;;
1507;SDS011;745;48.586;10.032;2023-04-24T20:20:04;5.53;;;4.97;;
1507;SDS011;745;48.586;10.032;2023-04-24T20:24:35;3.90;;;3.40;;
1507;SDS011;745;48.586;10.032;2023-04-24T20:29:06;4.33;;;3.93;;
1507;SDS011;745;48.586;10.032;2023-04-24T20:33:37;3.47;;;3.17;;
1507;SDS011;745;48.586;10.032;2023-04-24T20:38:10;4.23;;;3.83;;
1507;SDS011;745;48.586;10.032;2023-04-24T20:42:41;4.67;;;3.40;;
1507;SDS011;745;48.586;10.032;2023-04-24T20:47:11;4.80;;;4.10;;
1507;SDS011;745;48.586;10.032;2023-04-24T20:51:41;9.37;;;5.60;;
1507;SDS011;745;48.586;10.032;2023-04-24T20:56:12;3.57;;;3.27;;
1507;SDS011;745;48.586;10.032;2023-04-24T21:00:43;3.80;;;3.50;;
1507;SDS011;745;48.586;10.032;2023-04-24T21:05:14;4.20;;;3.80;;
1507;SDS011;745;48.586;10.032;2023-04-24T21:09:44;3.87;;;3.47;;
1507;SDS011;745;48.586;10.032;2023-04-24T21:14:14;3.50;;;3.20;;
1507;SDS011;745;48.586;10.032;2023-04-24T21:18:45;5.17;;;4.43;;
1507;SDS011;745;48.586;10.032;2023-04-24T21:23:15;4.50;;;3.93;;
1507;SDS011;745;48.586;10.032;2023-04-24T21:27:46;5.13;;;3.27;;
1507;SDS011;745;48.586;10.032;2023-04-24T21:32:16;4.10;;;3.67;;
1507;SDS011;745;48.586;10.032;2023-04-24T21:36:46;3.43;;;3.13;;
1507;SDS011;745;48.586;10.032;2023-04-24T21:41:17;4.40;;;3.37;;
1507;SDS011;745;48.586;10.032;2023-04-24T21:45:47;3.80;;;3.30;;
1507;SDS011;745;48.586;10.032;2023-04-24T21:50:18;3.20;;;2.90;;
1507;SDS011;745;48.586;10.032;2023-04-24T21:54:48;2.63;;;2.43;;
1507;SDS011;745;48.586;10.032;2023-04-24T21:59:19;3.57;;;2.70;;
1507;SDS011;745;48.586;10.032;2023-04-24T22:03:49;5.10;;;2.70;;
1507;SDS011;745;48.586;10.032;2023-04-24T22:08:22;3.50;;;2.90;;
1507;SDS011;745;48.586;10.032;2023-04-24T22:12:52;3.87;;;3.50;;
1507;SDS011;745;48.586;10.032;2023-04-24T22:17:23;3.17;;;2.87;;
1507;SDS011;745;48.586;10.032;2023-04-24T22:21:53;2.37;;;2.17;;
1507;SDS011;745;48.586;10.032;2023-04-24T22:26:24;6.00;;;3.13;;
1507;SDS011;745;48.586;10.032;2023-04-24T22:30:54;4.10;;;3.70;;
1507;SDS011;745;48.586;10.032;2023-04-24T22:35:26;2.80;;;2.60;;
1507;SDS011;745;48.586;10.032;2023-04-24T22:39:56;4.30;;;3.90;;
1507;SDS011;745;48.586;10.032;2023-04-24T22:44:29;3.90;;;3.33;;
1507;SDS011;745;48.586;10.032;2023-04-24T22:49:00;2.97;;;2.30;;
1507;SDS011;745;48.586;10.032;2023-04-24T22:53:31;2.57;;;2.37;;
1507;SDS011;745;48.586;10.032;2023-04-24T22:58:01;2.60;;;2.40;;
1507;SDS011;745;48.586;10.032;2023-04-24T23:02:32;2.60;;;2.30;;
1507;SDS011;745;48.586;10.032;2023-04-24T23:07:02;2.50;;;2.30;;
1507;SDS011;745;48.586;10.032;2023-04-24T23:11:33;2.17;;;1.97;;
1507;SDS011;745;48.586;10.032;2023-04-24T23:16:03;4.20;;;2.60;;
1507;SDS011;745;48.586;10.032;2023-04-24T23:20:34;3.17;;;2.87;;
1507;SDS011;745;48.586;10.032;2023-04-24T23:25:04;4.20;;;3.80;;
1507;SDS011;745;48.586;10.032;2023-04-24T23:29:37;5.23;;;3.50;;
1507;SDS011;745;48.586;10.032;2023-04-24T23:34:07;4.13;;;3.77;;
1507;SDS011;745;48.586;10.032;2023-04-24T23:38:40;5.77;;;4.50;;
1507;SDS011;745;48.586;10.032;2023-04-24T23:43:10;4.50;;;4.10;;
1507;SDS011;745;48.586;10.032;2023-04-24T23:47:42;4.10;;;3.30;;
1507;SDS011;745;48.586;10.032;2023-04-24T23:52:12;4.33;;;3.53;;
1507;SDS011;745;48.586;10.032;2023-04-24T23:56:43;7.60;;;3.87;;
